Tiempo atmosférico en la estación meteorológica de Alcañices, Zamora (840 m.)



Fecha
DESCASC
Temp. máxima en grados centígrados (hora)
DESCASC
Temp. mínima en grados centígrados (hora)
DESCASC
Temp. media en grados centígrados
DESCASC
Racha de viento máxima en m/sg (hora)
DESCASC
Velocidad máxima media en intervalos de 10 minutos(hora)
DESCASC
Precipitaciones diarias en mm
DESCASC
Precipitaciones de 00:00 a 06:00 en mm
DESCASC
Precipitaciones de 06:00 a 12:00 en mm
DESCASC
Precipitaciones de 12:00 a 18:00 en mm
DESCASC
Precipitaciones de 18:00 a 24:00 en mm
DESCASC
13-10-2019 20.6 (17:40) 11.5 (08:00) 16.1 14.44 (18:00) 8.61 (18:30) 0 0 0 0 0
12-10-2019 25.6 (16:00) 13.8 (08:50) 19.7 16.11 (15:40) 10 (17:40) 0 0 0 0 0
10-10-2019 23.2 (18:20) 6.8 (00:00) 15 8.33 (11:00) 6.11 (02:40) 0 0 0 0 0
09-10-2019 24.5 (17:00) 9.3 (00:00) 16.9 6.94 (23:59) 5 (23:59) 0 0 0 0 0
08-10-2019 26.3 (16:30) 11.4 (00:00) 18.8 10.83 (15:50) 6.94 (16:40) 0 0 0 0 0
07-10-2019 28.3 (17:30) 8.3 (00:00) 18.3 5.83 (13:10) 3.89 (04:10) 0 0 0 0 0
06-10-2019 24.2 (17:10) 7 (00:00) 15.6 7.22 (18:00) 4.72 (18:30) 0 0 0 0 0
05-10-2019 21.9 (16:20) 7.8 (08:10) 14.8 7.5 (15:00) 5 (18:40) 0 0 0 0 0
04-10-2019 23.2 (16:40) 11.6 (00:00) 17.4 8.89 (18:50) 5.56 (17:10) 0 0 0 0 0
03-10-2019 24.9 (16:20) 6.3 (00:00) 15.6 8.06 (19:50) 5.28 (19:10) 0 0 0 0 0
02-10-2019 24 (17:30) 4.9 (00:00) 14.5 7.78 (00:10) 5 (00:10) 0 0 0 0 0
01-10-2019 21.8 (16:20) 10.9 (00:00) 16.3 13.06 (15:50) 8.89 (13:10) 0 0 0 0 0
30-09-2019 26.2 (17:10) 11.2 (00:00) 18.7 8.33 (16:50) 5 (17:50) 0 0 0 0 0
29-09-2019 25.3 (16:20) 10.5 (00:00) 17.9 11.11 (16:10) 7.22 (16:50) 0 0 0 0 0
28-09-2019 26.1 (18:00) 6.5 (00:00) 16.3 6.94 (18:30) 4.44 (19:00) 0 0 0 0 0
27-09-2019 22.8 (16:10) 8.8 (00:00) 15.8 12.78 (14:50) 7.5 (15:10) 0 0 0 0 0
26-09-2019 24.1 (17:50) 7.8 (00:00) 16 10 (15:00) 6.39 (16:00) 0 0 0 0 0
25-09-2019 21.4 (17:00) 6.4 (00:00) 13.9 8.06 (17:30) 5 (19:40) 0 0 0 0 0
24-09-2019 21.1 (16:50) 10.8 (00:00) 16 14.17 (16:20) 9.72 (16:50) 0 0 0 0 0
23-09-2019 20.6 (18:00) 7.5 (00:00) 14.1 8.89 (15:20) 6.11 (19:20) 0 0 0 0 0
22-09-2019 19.5 (16:30) 10.1 (00:00) 14.8 10.56 (18:00) 6.39 (15:10) 0.4 0 0.4 0 0
21-09-2019 17.5 (00:30) 11 (00:00) 14.3 14.17 (22:30) 8.89 (22:40) 8.8 0 2 0.6 6.2
20-09-2019 25.9 (16:30) 14.1 (00:00) 20 11.11 (19:10) 7.22 (17:10) 0 0 0 0 0
19-09-2019 27.2 (17:20) 13 (00:00) 20.1 8.61 (16:00) 5.28 (10:50) 0 0 0 0 0
18-09-2019 28.8 (18:40) 11 (00:00) 19.9 7.22 (15:50) 4.72 (06:30) 0 0 0 0 0
17-09-2019 28.1 (16:40) 14.2 (00:00) 21.2 9.17 (18:00) 6.39 (18:00) 0 0 0 0 0
16-09-2019 25.8 (16:50) 14 (00:00) 19.9 7.78 (18:20) 5.56 (18:20) 0.2 0 0 0 0.2

Gráficas

Temp. máximas Temp. mínimas Temp. medias Precipitaciones Rachas de viento máximas Velocidades máximas media en intervalos de 10 minutos

Datos horarios

Fecha y hora oficial Temperatura (ºC) Velocidad del viento (km/h) Dirección del viento Racha (km/h) Dirección de racha Precipitación (mm) Presión (hPa) Tendencia (hPa) Humedad (%)
2019-10-15 23:00:00 9 14 Sudoeste 25 Sudoeste 0 -- -- 99
2019-10-15 22:00:00 9.2 15 Sudoeste 23 Sudoeste 0 -- -- 97
2019-10-15 21:00:00 9.2 17 Oeste 27 Sudoeste 0 -- -- 95
2019-10-15 20:00:00 10.2 16 Sudoeste 31 Sudoeste 0 -- -- 84
2019-10-15 19:00:00 11.3 18 Sudoeste 30 Sudoeste 0 -- -- 78
2019-10-15 18:00:00 11.6 13 Oeste 21 Sudoeste 0 -- -- 73
2019-10-15 17:00:00 11.4 14 Sudoeste 32 Sudoeste 0 -- -- 74
2019-10-15 16:00:00 11.2 21 Sudoeste 29 Sudoeste 0 -- -- 77
2019-10-15 15:00:00 10.6 18 Sudoeste 30 Sudoeste 0 -- -- 82
2019-10-15 14:00:00 11.4 19 Sudoeste 32 Sudoeste 0 -- -- 76
2019-10-15 13:00:00 9 10 Sudoeste 24 Sur 0 -- -- 88
2019-10-15 12:00:00 8.9 18 Sudoeste 26 Sudoeste 0 -- -- 89
2019-10-15 11:00:00 8.6 15 Sudoeste 22 Sudoeste 0 -- -- 99
2019-10-15 10:00:00 6.3 12 Sudoeste 18 Sudoeste 0 -- -- 100
2019-10-15 09:00:00 5.8 12 Sudoeste 21 Sudoeste 0 -- -- 100
2019-10-15 08:00:00 5.6 9 Sudoeste 17 Sudoeste 0 -- -- 100
2019-10-15 07:00:00 5.2 11 Sudoeste 16 Sudoeste 0 -- -- 100
2019-10-15 06:00:00 5.4 6 Sudoeste 15 Sudoeste 0 -- -- 100
2019-10-15 05:00:00 5.3 10 Sudoeste 17 Sudoeste 0 -- -- 98
2019-10-15 04:00:00 5.5 13 Sudoeste 22 Sudoeste 0 -- -- 98
2019-10-15 03:00:00 4.7 10 Sudoeste 17 Oeste 0 -- -- 98
2019-10-15 02:00:00 4.5 14 Oeste 22 Sudoeste 0 -- -- 98
2019-10-15 01:00:00 4.7 17 Sudoeste 23 Sudoeste 0 -- -- 96
2019-10-15 00:00:00 5.2 13 Sudoeste 28 Oeste 0 -- -- 95
2019-10-14 23:00:00 6 15 Oeste 39 Oeste 0 -- -- 88
2019-10-14 22:00:00 6.5 25 Oeste 33 Oeste 0 -- -- 87
2019-10-14 21:00:00 6.2 8 Oeste 26 Sudoeste 0 -- -- 92
2019-10-14 20:00:00 6.7 18 Oeste 34 Oeste 0 -- -- 86
2019-10-14 19:00:00 7.2 22 Oeste 36 Oeste 0 -- -- 94
2019-10-14 18:00:00 8.5 18 Oeste 32 Oeste 0 -- -- 91
2019-10-14 17:00:00 8.5 18 Oeste 41 Sudoeste 2.8 -- -- 98
2019-10-14 16:00:00 10.1 17 Sudoeste 37 Sudoeste 0 -- -- 94
2019-10-14 15:00:00 10.5 23 Sudoeste 37 Sudoeste 0.4 -- -- 90
2019-10-14 14:00:00 9.7 23 Sudoeste 40 Sudoeste 0 -- -- 98
2019-10-14 13:00:00 9.1 24 Sudoeste 39 Sudoeste 0 -- -- 98
2019-10-14 12:00:00 9.6 21 Sudoeste 40 Sudoeste 0 -- -- 96
2019-10-14 11:00:00 9.6 25 Sudoeste 42 Sudoeste 0 -- -- 95
2019-10-14 10:00:00 8.7 21 Sudoeste 29 Sudoeste 0 -- -- 100
2019-10-14 09:00:00 8.4 7 Oeste 21 Oeste 3.2 -- -- 100
2019-10-14 08:00:00 8.5 14 Oeste 38 Oeste 6.2 -- -- 99
2019-10-14 07:00:00 10.8 14 Oeste 24 Oeste 1.2 -- -- 94
2019-10-14 06:00:00 13.1 9 Sur 23 Sudoeste 0 -- -- 82
2019-10-14 05:00:00 13.3 14 Sur 21 Sur 0 -- -- 79
2019-10-14 04:00:00 13.2 12 Sur 22 Sur 0 -- -- 79
2019-10-14 03:00:00 13.3 12 Sur 21 Sur 0 -- -- 78
2019-10-14 02:00:00 13.4 12 Sur 17 Sur 0 -- -- 77
2019-10-14 01:00:00 14.2 11 Sur 30 Sur 0 -- -- 73
2019-10-14 00:00:00 14.4 10 Sur 34 Sur 0 -- -- 72
2019-10-13 23:00:00 15.3 23 Sur 34 Sur 0 -- -- 68
2019-10-13 22:00:00 15.4 10 Sudoeste 37 Sudoeste 0 -- -- 65
2019-10-13 21:00:00 15.6 21 Sur 37 Sur 0 -- -- 66
2019-10-13 20:00:00 16.7 17 Sur 37 Sur 0 -- -- 62
2019-10-13 19:00:00 18.5 27 Sur 46 Sudoeste 0 -- -- 52
2019-10-13 18:00:00 19 31 Sudoeste 52 Sudoeste 0 -- -- 51
2019-10-13 17:00:00 19.1 23 Sur 46 Sur 0 -- -- 54
2019-10-13 16:00:00 18.8 25 Sur 40 Sur 0 -- -- 60
2019-10-13 15:00:00 17.4 25 Sur 43 Sudoeste 0 -- -- 66
2019-10-13 14:00:00 18.2 28 Sur 44 Sur 0 -- -- 64
2019-10-13 13:00:00 17 25 Sur 41 Sur 0 -- -- 69
2019-10-13 12:00:00 15.8 25 Sur 39 Sur 0 -- -- 74
2019-10-13 11:00:00 14.3 23 Sur 40 Sur 0 -- -- 80
2019-10-13 10:00:00 13.3 22 Sur 35 Sur 0 -- -- 84
2019-10-13 09:00:00 12.4 13 Sur 22 Sur 0 -- -- 88
2019-10-13 08:00:00 11.5 15 Sur 26 Sur 0 -- -- 91
2019-10-13 07:00:00 12 16 Sur 31 Sur 0 -- -- 90
2019-10-13 06:00:00 12 16 Sur 36 Sudoeste 0 -- -- 91
2019-10-13 05:00:00 12.5 15 Sudoeste 27 Sudoeste 0 -- -- 91
2019-10-13 04:00:00 12.7 16 Sudoeste 29 Sur 0 -- -- 92
2019-10-13 03:00:00 13.3 10 Sur 21 Sudoeste 0 -- -- 91
2019-10-13 02:00:00 13.2 13 Sudoeste 19 Sudoeste 0 -- -- 94
2019-10-13 01:00:00 13.7 9 Sudoeste 21 Sudoeste 0 -- -- 89
2019-10-13 00:00:00 14.9 12 Sudoeste 26 Sudoeste 0 -- -- 84
2019-10-12 23:00:00 17 17 Sudoeste 30 Sudoeste 0 -- -- 75
2019-10-12 22:00:00 19.8 23 Sudoeste 36 Sudoeste 0 -- -- 63
2019-10-12 21:00:00 22.3 25 Sur 41 Sur 0 -- -- 44
2019-10-12 20:00:00 22.8 26 Sudoeste 43 Sur 0 -- -- 41
2019-10-12 19:00:00 23.2 27 Sur 51 Sur 0 -- -- 42
2019-10-12 18:00:00 23.7 33 Sur 53 Sudoeste 0 -- -- 41
2019-10-12 17:00:00 24.5 32 Sur 51 Sur 0 -- -- 39
2019-10-12 16:00:00 25.6 28 Sur 58 Sudoeste 0 -- -- 38
2019-10-12 15:00:00 25.4 26 Sur 41 Sudoeste 0 -- -- 39
2019-10-12 14:00:00 23 29 Sur 44 Sur 0 -- -- 48
2019-10-12 13:00:00 22.4 22 Sudoeste 45 Sudoeste 0 -- -- 55
2019-10-12 12:00:00 20.4 24 Sudoeste 44 Sur 0 -- -- 62
2019-10-12 11:00:00 18.7 15 Sudoeste 24 Sur 0 -- -- 73
2019-10-12 10:00:00 16.4 12 Sudoeste 23 Sur 0 -- -- 81
2019-10-12 09:00:00 14 10 Sudoeste 22 Sudoeste 0 -- -- 88
2019-10-12 08:00:00 14.9 13 Sudoeste 19 Sudoeste 0 -- -- 82
2019-10-12 07:00:00 15.3 11 Sudoeste 27 Sudoeste 0 -- -- 78
2019-10-12 06:00:00 15.7 16 Sudoeste 29 Sudoeste 0 -- -- 75
2019-10-12 05:00:00 16.5 21 Sudoeste 32 Sur 0 -- -- 69
2019-10-12 04:00:00 16.3 15 Sur 27 Sur 0 -- -- 66
2019-10-12 03:00:00 16.4 13 Sur 22 Sur 0 -- -- 65
2019-10-12 02:00:00 17.1 12 Sur 26 Sur 0 -- -- 63
2019-10-12 01:00:00 18.6 17 Sur 28 Sudoeste 0 -- -- 59
2019-10-12 00:00:00 17.8 13 Sur 26 Sur 0 -- -- 64
2019-10-11 23:00:00 19.5 16 Sudoeste 28 Sur 0 -- -- 59
2019-10-11 22:00:00 19.9 15 Sur 24 Sur 0 -- -- 57
2019-10-11 21:00:00 21.5 16 Sur 27 Sur 0 -- -- 53
2019-10-11 20:00:00 22.6 18 Sur 30 Sur 0 -- -- 48
2019-10-11 19:00:00 24.4 15 Sur 30 Sudoeste 0 -- -- 43
2019-10-11 18:00:00 25.4 12 Sudoeste 26 Oeste 0 -- -- 39
2019-10-11 17:00:00 25.7 19 Sudoeste 32 Sudoeste 0 -- -- 39
2019-10-11 16:00:00 26.3 20 Sudoeste 34 Sudoeste 0 -- -- 39
2019-10-11 15:00:00 25.6 15 Sudoeste 33 Sudoeste 0 -- -- 37
2019-10-11 14:00:00 24.6 18 Sudoeste 31 Sudoeste 0 -- -- 39
2019-10-11 13:00:00 23.4 13 Sudoeste 23 Sudoeste 0 -- -- 42
2019-10-11 12:00:00 22.7 4 Este 13 Este 0 -- -- 39
2019-10-11 11:00:00 18.1 7 Este 12 Este 0 -- -- 48
2019-10-11 10:00:00 14.3 7 Este 10 Este 0 -- -- 54
2019-10-11 09:00:00 10.2 6 Este 12 Este 0 -- -- 66
2019-10-11 08:00:00 9.5 9 Nordeste 12 Nordeste 0 -- -- 68
2019-10-11 07:00:00 9.9 10 Este 16 Este 0 -- -- 66
2019-10-11 06:00:00 10.5 8 Este 12 Nordeste 0 -- -- 63
2019-10-11 05:00:00 10.9 12 Nordeste -- -- 0 -- -- 61
2019-10-11 04:00:00 11.6 12 Nordeste 14 Nordeste 0 -- -- 59
2019-10-11 03:00:00 11.4 11 Nordeste 14 Nordeste 0 -- -- 60
2019-10-11 02:00:00 12.1 11 Nordeste 13 Nordeste 0 -- -- 57
2019-10-11 01:00:00 11.5 9 Nordeste 12 Este 0 -- -- 61
2019-10-11 00:00:00 12.8 9 Nordeste 13 Nordeste 0 -- -- 56
2019-10-10 23:00:00 13.2 12 Nordeste 12 Nordeste 0 -- -- 56
2019-10-10 22:00:00 14.2 12 Este 13 Este 0 -- -- 52
2019-10-10 21:00:00 16.3 10 Nordeste 11 Nordeste 0 -- -- 47
2019-10-10 20:00:00 18.3 8 Este 11 Nordeste 0 -- -- 43
2019-10-10 19:00:00 22.2 8 Nordeste 13 Este 0 -- -- 35
2019-10-10 18:00:00 23.1 6 Este 18 Este 0 -- -- 33
2019-10-10 17:00:00 22.7 10 Este 22 Este 0 -- -- 35
2019-10-10 16:00:00 21.7 11 Este 25 Este 0 -- -- 38
2019-10-10 15:00:00 21 14 Este 27 Nordeste 0 -- -- 40
2019-10-10 14:00:00 19.9 17 Nordeste 29 Este 0 -- -- 45
2019-10-10 13:00:00 18.2 20 Nordeste 28 Nordeste 0 -- -- 50
2019-10-10 12:00:00 15.8 18 Nordeste 29 Nordeste 0 -- -- 58
2019-10-10 11:00:00 13.4 22 Nordeste 30 Nordeste 0 -- -- 66
2019-10-10 10:00:00 11 13 Nordeste 21 Nordeste 0 -- -- 77
2019-10-10 09:00:00 8 15 Nordeste 22 Nordeste 0 -- -- 90
2019-10-10 08:00:00 6.9 17 Nordeste 23 Nordeste 0 -- -- 93
2019-10-10 07:00:00 7.5 19 Nordeste 23 Nordeste 0 -- -- 92
2019-10-10 06:00:00 7.5 19 Nordeste 23 Nordeste 0 -- -- 91
2019-10-10 05:00:00 7.6 18 Nordeste 23 Nordeste 0 -- -- 89
2019-10-10 04:00:00 8.1 20 Nordeste 27 Nordeste 0 -- -- 86
2019-10-10 03:00:00 9 22 Nordeste 27 Nordeste 0 -- -- 81
2019-10-10 02:00:00 9.1 18 Este 26 Nordeste 0 -- -- 79
2019-10-10 01:00:00 10.9 19 Nordeste 24 Nordeste 0 -- -- 71
2019-10-10 00:00:00 12.2 18 Nordeste 25 Nordeste 0 -- -- 54
2019-10-09 23:00:00 11.2 12 Norte 14 Norte 0 -- -- 53
2019-10-09 22:00:00 15.4 6 Nordeste 8 Nordeste 0 -- -- 39
2019-10-09 21:00:00 17.1 4 Nordeste 17 Nordeste 0 -- -- 35
2019-10-09 20:00:00 18 6 Oeste 13 Oeste 0 -- -- 43
2019-10-09 19:00:00 22.3 8 Oeste 15 Sudoeste 0 -- -- 30
2019-10-09 18:00:00 23.9 6 Oeste 18 Oeste 0 -- -- 23
2019-10-09 17:00:00 24.5 5 Oeste 14 Nordeste 0 -- -- 22
2019-10-09 16:00:00 23.5 6 Norte 14 Noroeste 0 -- -- 22
2019-10-09 15:00:00 22.1 6 Nordeste 18 Nordeste 0 -- -- 23
2019-10-09 14:00:00 21.1 9 Norte 23 Nordeste 0 -- -- 27
2019-10-09 13:00:00 19.2 13 Nordeste 23 Nordeste 0 -- -- 30
2019-10-09 12:00:00 16.7 11 Nordeste 19 Nordeste 0 -- -- 44
2019-10-09 11:00:00 13.9 12 Nordeste 17 Nordeste 0 -- -- 77
2019-10-09 10:00:00 11.9 6 Este 10 Este 0 -- -- 98
2019-10-09 09:00:00 9.5 5 Sudeste 9 Nordeste 0 -- -- 100
2019-10-09 08:00:00 9.4 7 Sudeste 10 Sudeste 0 -- -- 100
2019-10-09 07:00:00 10.2 3 Sudoeste 10 Sudoeste 0 -- -- 100
2019-10-09 06:00:00 9.3 3 Sudoeste 12 Sudoeste 0 -- -- 99
2019-10-09 05:00:00 11.4 9 Oeste 22 Sudoeste 0 -- -- 99
2019-10-09 04:00:00 12.3 9 Sudoeste 21 Oeste 0 -- -- 91
2019-10-09 03:00:00 13.4 13 Sudoeste 15 Sudoeste 0 -- -- 88
2019-10-09 02:00:00 14.2 11 Sudoeste 16 Sudoeste 0 -- -- 87
2019-10-09 01:00:00 14.9 10 Oeste 16 Oeste 0 -- -- 88
2019-10-09 00:00:00 16 13 Sudoeste 17 Sudoeste 0 -- -- 83
2019-10-08 23:00:00 16.7 9 Sudoeste 20 Oeste 0 -- -- 79
2019-10-08 22:00:00 18 12 Oeste 21 Oeste 0 -- -- 73
2019-10-08 21:00:00 19.8 13 Oeste 23 Oeste 0 -- -- 66
2019-10-08 20:00:00 20.9 11 Oeste 29 Oeste 0 -- -- 62
2019-10-08 19:00:00 23.8 18 Oeste 33 Oeste 0 -- -- 51
2019-10-08 18:00:00 25.4 19 Oeste 35 Sudoeste 0 -- -- 47
2019-10-08 17:00:00 25.5 24 Sudoeste 37 Oeste 0 -- -- 45
2019-10-08 16:00:00 26.1 21 Oeste 39 Sudoeste 0 -- -- 45
2019-10-08 15:00:00 24.8 22 Oeste 33 Oeste 0 -- -- 48
2019-10-08 14:00:00 24.1 15 Sudoeste 27 Sudoeste 0 -- -- 45
2019-10-08 13:00:00 22.9 13 Sudoeste 22 Oeste 0 -- -- 50
2019-10-08 12:00:00 20.7 10 Sudoeste 18 Sudoeste 0 -- -- 53
2019-10-08 11:00:00 18.1 10 Sudoeste 14 Sudoeste 0 -- -- 54
2019-10-08 10:00:00 17 4 Sudoeste 6 Sudoeste 0 -- -- 55
2019-10-08 09:00:00 14.5 4 Sur 6 Sur 0 -- -- 61
2019-10-08 08:00:00 13 6 Sur 8 Sur 0 -- -- 65
2019-10-08 07:00:00 13 5 Sudoeste 7 Sudoeste 0 -- -- 66
2019-10-08 06:00:00 13.6 4 Sudoeste 10 Oeste 0 -- -- 64
2019-10-08 05:00:00 13.7 7 Sudoeste 11 Sudoeste 0 -- -- 64
2019-10-08 04:00:00 12.3 5 Oeste 9 Sudeste 0 -- -- 69
2019-10-08 03:00:00 15.6 4 Sudeste 8 Sudeste 0 -- -- 59
2019-10-08 02:00:00 16 3 Oeste 9 Oeste 0 -- -- 53
2019-10-08 01:00:00 17.7 6 Sudoeste 8 Oeste 0 -- -- 45
2019-10-08 00:00:00 16.9 4 Sudeste 9 Oeste 0 -- -- 48
2019-10-07 23:00:00 18.7 7 Sudoeste 9 Oeste 0 -- -- 43
2019-10-07 22:00:00 18.7 5 Oeste 12 Sudoeste 0 -- -- 46
2019-10-07 21:00:00 21.6 9 Sudoeste 13 Sudoeste 0 -- -- 37
2019-10-07 20:00:00 23 7 Sudoeste 13 Sudoeste 0 -- -- 37
2019-10-07 19:00:00 26.8 9 Sudoeste 17 Sudoeste 0 -- -- 28
2019-10-07 18:00:00 27.5 11 Sudoeste 19 Sudoeste 0 -- -- 26
2019-10-07 17:00:00 27.9 8 Sudoeste 20 Oeste 0 -- -- 25
2019-10-07 16:00:00 27.3 10 Sudoeste 21 Sudoeste 0 -- -- 26
2019-10-07 15:00:00 26.6 7 Oeste 15 Oeste 0 -- -- 29
2019-10-07 14:00:00 24.2 9 Sudoeste 21 Sudoeste 0 -- -- 31
2019-10-07 13:00:00 22.7 9 Sur 15 Sur 0 -- -- 40
2019-10-07 12:00:00 20.1 6 Este 15 Nordeste 0 -- -- 49
2019-10-07 11:00:00 17.1 12 Este 15 Nordeste 0 -- -- 65
2019-10-07 10:00:00 13.2 5 Este 10 Este 0 -- -- 81
2019-10-07 09:00:00 10.1 11 Nordeste 14 Nordeste 0 -- -- 92
2019-10-07 08:00:00 8.7 5 Este 14 Este 0 -- -- 94
2019-10-07 07:00:00 10 12 Este 15 Este 0 -- -- 90
2019-10-07 06:00:00 10 10 Este 15 Este 0 -- -- 75
2019-10-07 05:00:00 11.5 9 Este 16 Este 0 -- -- 65
2019-10-07 04:00:00 11.2 13 Este 16 Este 0 -- -- 67
2019-10-07 03:00:00 13.3 4 Sudeste 13 Este 0 -- -- 59
2019-10-07 02:00:00 13.4 4 Oeste 5 Oeste 0 -- -- 58
2019-10-07 01:00:00 13.5 4 Sudoeste 9 Nordeste 0 -- -- 58
2019-10-07 00:00:00 15.1 6 Noroeste 15 Noroeste 0 -- -- 50
2019-10-06 23:00:00 16.8 11 Oeste 17 Oeste 0 -- -- 48
2019-10-06 22:00:00 17 8 Oeste 22 Oeste 0 -- -- 42
2019-10-06 21:00:00 18.8 13 Oeste 23 Oeste 0 -- -- 41
2019-10-06 20:00:00 20.3 13 Oeste 23 Oeste 0 -- -- 45
2019-10-06 19:00:00 23.5 15 Sudoeste 25 Oeste 0 -- -- 36
2019-10-06 18:00:00 24.1 16 Sudoeste 26 Sudoeste 0 -- -- 34
2019-10-06 17:00:00 23.8 13 Oeste 24 Sudoeste 0 -- -- 32
2019-10-06 16:00:00 23.1 13 Sudoeste 25 Oeste 0 -- -- 38
2019-10-06 15:00:00 22.5 11 Oeste 23 Oeste 0 -- -- 42
2019-10-06 14:00:00 21.2 7 Oeste 17 Oeste 0 -- -- 46
2019-10-06 13:00:00 20.7 4 Norte 12 Este 0 -- -- 51
2019-10-06 12:00:00 16.7 7 Nordeste 17 Este 0 -- -- 66
2019-10-06 11:00:00 14.5 12 Este 16 Este 0 -- -- 76
2019-10-06 10:00:00 11.4 5 Sudeste 11 Sudeste 0 -- -- 95
2019-10-06 09:00:00 7.9 6 Nordeste 8 Nordeste 0 -- -- 99
2019-10-06 08:00:00 7.3 6 Nordeste 7 Nordeste 0 -- -- 100
2019-10-06 07:00:00 7.3 0 Calma 5 Sudoeste 0 -- -- 100
2019-10-06 06:00:00 9 4 Sudeste 8 Sudeste 0 -- -- 99
2019-10-06 05:00:00 8.6 0 Calma 4 Sur 0 -- -- 97
2019-10-06 04:00:00 8.5 3 Sudoeste 5 Sudoeste 0 -- -- 93
2019-10-06 03:00:00 10 4 Sudoeste 15 Sudoeste 0 -- -- 94
2019-10-06 02:00:00 11.8 10 Sudoeste 14 Sudoeste 0 -- -- 85
2019-10-06 01:00:00 12.4 10 Sudoeste 12 Oeste 0 -- -- 84
2019-10-06 00:00:00 13.7 12 Sudoeste 14 Oeste 0 -- -- 79
2019-10-05 23:00:00 14.9 11 Sudoeste 17 Sudoeste 0 -- -- 73
2019-10-05 22:00:00 15.3 10 Sudoeste 15 Sudoeste 0 -- -- 68
2019-10-05 21:00:00 16.1 8 Sudoeste 15 Sudoeste 0 -- -- 61
2019-10-05 20:00:00 17.6 12 Sudoeste 24 Sudoeste 0 -- -- 53
2019-10-05 19:00:00 20.3 18 Sudoeste 26 Sudoeste 0 -- -- 53
2019-10-05 18:00:00 21.5 15 Sudoeste 26 Sudoeste 0 -- -- 50
2019-10-05 17:00:00 21.9 14 Sudoeste 24 Sudoeste 0 -- -- 51
2019-10-05 16:00:00 21.4 14 Sudoeste 26 Sudoeste 0 -- -- 53
2019-10-05 15:00:00 20.3 14 Sudoeste 27 Sudoeste 0 -- -- 59
2019-10-05 14:00:00 19.3 14 Sudoeste 21 Sudoeste 0 -- -- 65
2019-10-05 13:00:00 19 10 Sudoeste 18 Sudoeste 0 -- -- 69
2019-10-05 12:00:00 16.3 8 Oeste 13 Sudoeste 0 -- -- 81
2019-10-05 11:00:00 14.8 2 Sudoeste 7 Nordeste 0 -- -- 94
2019-10-05 10:00:00 11.6 4 Nordeste 7 Nordeste 0 -- -- 96
2019-10-05 09:00:00 10.3 2 Este 5 Este 0 -- -- 100
2019-10-05 08:00:00 8.1 5 Este 6 Este 0 -- -- 100
2019-10-05 07:00:00 9.2 3 Norte 4 Oeste 0 -- -- 100
2019-10-05 06:00:00 10 3 Oeste 4 Oeste 0 -- -- 100
2019-10-05 05:00:00 11.1 3 Oeste 8 Sudoeste 0 -- -- 100
2019-10-05 04:00:00 11.9 5 Sudoeste 8 Sudoeste 0 -- -- 95
2019-10-05 03:00:00 12.4 8 Sudoeste 10 Sudoeste 0 -- -- 93
2019-10-05 02:00:00 11.8 4 Sudoeste 7 Oeste 0 -- -- 92
2019-10-05 01:00:00 12.6 3 Sudoeste 5 Sudoeste 0 -- -- 93
2019-10-05 00:00:00 13.6 0 Calma 8 Oeste 0 -- -- 88
2019-10-04 23:00:00 14.5 3 Oeste 15 Noroeste 0 -- -- 82
2019-10-04 22:00:00 16.4 9 Oeste 16 Oeste 0 -- -- 72
2019-10-04 21:00:00 17.9 9 Oeste 13 Sudoeste 0 -- -- 59
2019-10-04 20:00:00 19.6 12 Sudoeste 28 Sudoeste 0 -- -- 55
2019-10-04 19:00:00 22.1 17 Sudoeste 32 Sudoeste 0 -- -- 48
2019-10-04 18:00:00 23 16 Oeste 31 Oeste 0 -- -- 45
2019-10-04 17:00:00 22.8 17 Oeste 31 Sudoeste 0 -- -- 46
2019-10-04 16:00:00 22.7 15 Sudoeste 27 Sudoeste 0 -- -- 47
2019-10-04 15:00:00 21.9 13 Sudoeste 29 Sudoeste 0 -- -- 52
2019-10-04 14:00:00 20.8 11 Oeste 26 Sudoeste 0 -- -- 58
2019-10-04 13:00:00 19.9 18 Oeste 29 Oeste 0 -- -- 62
2019-10-04 12:00:00 16.9 9 Sudoeste 17 Sudoeste 0 -- -- 93
2019-10-04 11:00:00 13.9 7 Sudoeste 12 Sudoeste 0 -- -- 100
2019-10-04 10:00:00 13.4 9 Sudoeste 12 Sudoeste 0 -- -- 99
2019-10-04 09:00:00 13.5 5 Oeste 15 Oeste 0 -- -- 100
2019-10-04 08:00:00 12.4 6 Oeste 8 Oeste 0 -- -- 100
2019-10-04 07:00:00 11.7 6 Noroeste 15 Sudoeste 0 -- -- 98
2019-10-04 06:00:00 12.7 9 Sudoeste 14 Sudoeste 0 -- -- 100
2019-10-04 05:00:00 12.3 9 Sudoeste 12 Sudoeste 0 -- -- 98
2019-10-04 04:00:00 13 8 Sudoeste 10 Sudoeste 0 -- -- 96
2019-10-04 03:00:00 13.2 6 Sudoeste 10 Sudoeste 0 -- -- 93
2019-10-04 02:00:00 13.7 8 Sudoeste 12 Sudoeste 0 -- -- 88
2019-10-04 01:00:00 14 5 Sudoeste 9 Oeste 0 -- -- 86
2019-10-04 00:00:00 15 8 Sudoeste 15 Sudoeste 0 -- -- 82
2019-10-03 23:00:00 15.7 10 Oeste 21 Oeste 0 -- -- 78
2019-10-03 22:00:00 17 12 Oeste 27 Oeste 0 -- -- 73
2019-10-03 21:00:00 18.2 16 Oeste 28 Oeste 0 -- -- 68
2019-10-03 20:00:00 20.3 13 Oeste 29 Oeste 0 -- -- 55
2019-10-03 19:00:00 23.7 16 Sudoeste 28 Sudoeste 0 -- -- 36
2019-10-03 18:00:00 24.6 15 Sudoeste 28 Sudoeste 0 -- -- 31
2019-10-03 17:00:00 24.6 17 Sudoeste 28 Sudoeste 0 -- -- 28
2019-10-03 16:00:00 23.8 13 Sudoeste 25 Sudoeste 0 -- -- 31
2019-10-03 15:00:00 21.6 15 Sudoeste 28 Sudoeste 0 -- -- 44
2019-10-03 14:00:00 20.3 14 Sudoeste 26 Oeste 0 -- -- 45
2019-10-03 13:00:00 19 13 Sudoeste 24 Sudoeste 0 -- -- 50
2019-10-03 12:00:00 17.3 9 Sudoeste 15 Sudoeste 0 -- -- 57
2019-10-03 11:00:00 16.7 5 Sudoeste 13 Este 0 -- -- 58
2019-10-03 10:00:00 12.9 8 Este 11 Este 0 -- -- 70
2019-10-03 09:00:00 6.8 4 Noroeste 6 Noroeste 0 -- -- 90
2019-10-03 08:00:00 6.6 2 Norte 7 Nordeste 0 -- -- 88
2019-10-03 07:00:00 7.1 3 Nordeste 5 Nordeste 0 -- -- 85
2019-10-03 06:00:00 7.7 6 Nordeste 9 Nordeste 0 -- -- 82
2019-10-03 05:00:00 7.5 8 Nordeste 12 Nordeste 0 -- -- 83
2019-10-03 04:00:00 8.1 11 Este 14 Nordeste 0 -- -- 78
2019-10-03 03:00:00 10.4 10 Nordeste 15 Nordeste 0 -- -- 74
2019-10-03 02:00:00 11.4 0 Calma 3 Sudeste 0 -- -- 71
2019-10-03 01:00:00 11.1 0 Calma -- -- 0 -- -- 70
2019-10-03 00:00:00 12 3 Sudeste 8 Nordeste 0 -- -- 64
2019-10-02 23:00:00 11.9 8 Norte 12 Nordeste 0 -- -- 63
2019-10-02 22:00:00 14.9 5 Oeste 7 Oeste 0 -- -- 51
2019-10-02 21:00:00 15.6 5 Oeste 10 Oeste 0 -- -- 49
2019-10-02 20:00:00 17.5 7 Oeste 21 Sudoeste 0 -- -- 44
2019-10-02 19:00:00 20.8 14 Sudoeste 23 Sudoeste 0 -- -- 36
2019-10-02 18:00:00 22.9 6 Oeste 15 Oeste 0 -- -- 33
2019-10-02 17:00:00 23.5 7 Noroeste 15 Norte 0 -- -- 31
2019-10-02 16:00:00 22.2 7 Norte 20 Norte 0 -- -- 34
2019-10-02 15:00:00 20.4 6 Este 19 Norte 0 -- -- 38
2019-10-02 14:00:00 20 6 Norte 19 Este 0 -- -- 40
2019-10-02 13:00:00 18.5 5 Norte 22 Norte 0 -- -- 45
2019-10-02 12:00:00 17.6 6 Norte 18 Norte 0 -- -- 48
2019-10-02 11:00:00 15.8 3 Oeste 8 Norte 0 -- -- 60
2019-10-02 10:00:00 11.6 3 Oeste 7 Sudeste 0 -- -- 81
2019-10-02 09:00:00 6.8 7 Sudeste 11 Nordeste 0 -- -- 96
2019-10-02 08:00:00 6.2 3 Sudoeste 9 Sudoeste 0 -- -- 97
2019-10-02 07:00:00 6.7 5 Sudoeste 12 Oeste 0 -- -- 96
2019-10-02 06:00:00 6.8 5 Oeste 16 Sudoeste 0 -- -- 96
2019-10-02 05:00:00 8.2 13 Sudoeste 17 Oeste 0 -- -- 94
2019-10-02 04:00:00 8.8 14 Oeste 21 Oeste 0 -- -- 91
2019-10-02 03:00:00 9 12 Sudoeste 18 Oeste 0 -- -- 89
2019-10-02 02:00:00 10.1 11 Oeste 23 Sudoeste 0 -- -- 84
2019-10-02 01:00:00 10.9 14 Oeste 28 Oeste 0 -- -- 82
2019-10-02 00:00:00 12.5 20 Oeste 42 Oeste 0 -- -- 76
2019-10-01 23:00:00 13.8 24 Oeste 38 Oeste 0 -- -- 69
2019-10-01 22:00:00 14.8 17 Oeste 34 Oeste 0 -- -- 68
2019-10-01 21:00:00 16.6 19 Oeste 30 Oeste 0 -- -- 62
2019-10-01 20:00:00 18.2 15 Oeste 37 Oeste 0 -- -- 53
2019-10-01 19:00:00 20.8 17 Oeste 34 Sudoeste 0 -- -- 47
2019-10-01 18:00:00 21.5 25 Oeste 46 Oeste 0 -- -- 44
2019-10-01 17:00:00 21.3 29 Oeste 46 Sudoeste 0 -- -- 44
2019-10-01 16:00:00 21.3 27 Oeste 47 Oeste 0 -- -- 46
2019-10-01 15:00:00 20.4 24 Oeste 42 Oeste 0 -- -- 51
2019-10-01 14:00:00 19.4 26 Oeste 46 Sudoeste 0 -- -- 55
2019-10-01 13:00:00 17.9 29 Oeste 41 Oeste 0 -- -- 65
2019-10-01 12:00:00 16 20 Oeste 30 Sudoeste 0 -- -- 79
2019-10-01 11:00:00 14.7 14 Sudoeste 26 Oeste 0 -- -- 86
2019-10-01 10:00:00 13.1 16 Sudoeste 25 Sudoeste 0 -- -- 93
2019-10-01 09:00:00 11.9 15 Sudoeste 30 Sudoeste 0 -- -- 98
2019-10-01 08:00:00 11.3 17 Sudoeste 28 Sudoeste 0 -- -- 97
2019-10-01 07:00:00 11.4 10 Sudoeste 19 Sudoeste 0 -- -- 99
2019-10-01 06:00:00 11.9 12 Sudoeste 15 Sudoeste 0 -- -- 97
2019-10-01 05:00:00 13.2 9 Oeste 23 Sudoeste 0 -- -- 94
2019-10-01 04:00:00 14.1 15 Sudoeste 19 Sudoeste 0 -- -- 89
2019-10-01 03:00:00 14.9 12 Oeste 14 Sudoeste 0 -- -- 85
2019-10-01 02:00:00 15.5 6 Oeste 11 Oeste 0 -- -- 83
2019-10-01 01:00:00 15.6 10 Oeste 14 Oeste 0 -- -- 82
2019-10-01 00:00:00 16.6 8 Oeste 13 Oeste 0 -- -- 74
2019-09-30 23:00:00 17 8 Noroeste 12 Noroeste 0 -- -- 71
2019-09-30 22:00:00 18.1 9 Noroeste 15 Noroeste 0 -- -- 64
2019-09-30 21:00:00 19.6 6 Noroeste 12 Oeste 0 -- -- 54
2019-09-30 20:00:00 22.8 9 Oeste 26 Oeste 0 -- -- 43
2019-09-30 19:00:00 25.5 15 Oeste 28 Oeste 0 -- -- 42
2019-09-30 18:00:00 26 15 Sudoeste 30 Sudoeste 0 -- -- 38
2019-09-30 17:00:00 26 13 Sudoeste 30 Sudoeste 0 -- -- 45
2019-09-30 16:00:00 26 14 Oeste 26 Sudoeste 0 -- -- 45
2019-09-30 15:00:00 24.7 11 Sudoeste 23 Sudoeste 0 -- -- 52
2019-09-30 14:00:00 23.7 10 Sudoeste 22 Sudoeste 0 -- -- 58
2019-09-30 13:00:00 22.6 9 Sudoeste 17 Sudoeste 0 -- -- 60
2019-09-30 12:00:00 21.3 5 Sudoeste 9 Sudoeste 0 -- -- 67
2019-09-30 11:00:00 17.3 4 Sudoeste 8 Sudoeste 0 -- -- 90
2019-09-30 10:00:00 13.8 2 Nordeste 5 Norte 0 -- -- 98
2019-09-30 09:00:00 11.5 3 Norte 4 Sur 0 -- -- 100
2019-09-30 08:00:00 12.2 5 Sur 9 Sudeste 0 -- -- 100
2019-09-30 07:00:00 12.1 6 Sudeste 9 Sudeste 0 -- -- 100
2019-09-30 06:00:00 12.5 7 Este 9 Sudeste 0 -- -- 99
2019-09-30 05:00:00 12.8 5 Sur 12 Oeste 0 -- -- 99
2019-09-30 04:00:00 14.4 6 Oeste 13 Oeste 0 -- -- 96
2019-09-30 03:00:00 14.9 8 Oeste 17 Oeste 0 -- -- 93
2019-09-30 02:00:00 14.9 12 Oeste 17 Oeste 0 -- -- 90
2019-09-30 01:00:00 15.2 6 Oeste 12 Noroeste 0 -- -- 87
2019-09-30 00:00:00 15.7 7 Oeste 15 Oeste 0 -- -- 85
2019-09-29 23:00:00 17 6 Oeste 13 Oeste 0 -- -- 78
2019-09-29 22:00:00 17.6 8 Noroeste 20 Oeste 0 -- -- 75
2019-09-29 21:00:00 19.5 11 Oeste 17 Oeste 0 -- -- 62
2019-09-29 20:00:00 21.7 13 Oeste 30 Oeste 0 -- -- 52
2019-09-29 19:00:00 23.5 21 Oeste 36 Sudoeste 0 -- -- 44
2019-09-29 18:00:00 24.4 21 Oeste 38 Oeste 0 -- -- 41
2019-09-29 17:00:00 25.1 21 Oeste 40 Oeste 0 -- -- 35
2019-09-29 16:00:00 25 23 Sudoeste 39 Sudoeste 0 -- -- 33
2019-09-29 15:00:00 23.9 23 Sudoeste 36 Sudoeste 0 -- -- 36
2019-09-29 14:00:00 23.3 18 Sudoeste 28 Sudoeste 0 -- -- 34
2019-09-29 13:00:00 21.9 14 Sudoeste 25 Sudoeste 0 -- -- 32
2019-09-29 12:00:00 19.8 14 Sudoeste 19 Sudoeste 0 -- -- 35
2019-09-29 11:00:00 17 11 Sudoeste 18 Sudoeste 0 -- -- 50
2019-09-29 10:00:00 14.2 10 Sudoeste 15 Sudoeste 0 -- -- 59
2019-09-29 09:00:00 11.6 8 Sudoeste 14 Sudoeste 0 -- -- 64
2019-09-29 08:00:00 11.1 11 Sudoeste 14 Oeste 0 -- -- 64
2019-09-29 07:00:00 10.6 10 Oeste 14 Oeste 0 -- -- 67
2019-09-29 06:00:00 12.3 11 Sudoeste 12 Sudoeste 0 -- -- 61
2019-09-29 05:00:00 13.1 10 Oeste 12 Oeste 0 -- -- 55
2019-09-29 04:00:00 11.7 4 Oeste 10 Noroeste 0 -- -- 61
2019-09-29 03:00:00 12.9 4 Sudoeste 8 Oeste 0 -- -- 56
2019-09-29 02:00:00 13.8 4 Oeste 10 Noroeste 0 -- -- 54
2019-09-29 01:00:00 12.8 8 Noroeste 13 Oeste 0 -- -- 58
2019-09-29 00:00:00 15.3 8 Oeste 12 Oeste 0 -- -- 49
2019-09-28 23:00:00 15.2 6 Noroeste 8 Oeste 0 -- -- 48
2019-09-28 22:00:00 17.1 5 Oeste 9 Oeste 0 -- -- 38
2019-09-28 21:00:00 19.3 8 Oeste 10 Sudoeste 0 -- -- 32
2019-09-28 20:00:00 21.4 8 Sudoeste 22 Sudoeste 0 -- -- 26
2019-09-28 19:00:00 24.4 16 Sudoeste 25 Oeste 0 -- -- 21
2019-09-28 18:00:00 26.1 10 Oeste 23 Oeste 0 -- -- 20
2019-09-28 17:00:00 25.7 14 Sudoeste 24 Sudoeste 0 -- -- 24
2019-09-28 16:00:00 25.4 7 Sudoeste 18 Sudoeste 0 -- -- 31
2019-09-28 15:00:00 23.5 11 Sudoeste 22 Oeste 0 -- -- 31
2019-09-28 14:00:00 22.6 5 Oeste 16 Sur 0 -- -- 40
2019-09-28 13:00:00 20.8 5 Sudeste 16 Este 0 -- -- 51
2019-09-28 12:00:00 18 7 Este 13 Este 0 -- -- 64
2019-09-28 11:00:00 15.6 8 Este 12 Nordeste 0 -- -- 77
2019-09-28 10:00:00 12.3 6 Este 10 Nordeste 0 -- -- 96
2019-09-28 09:00:00 8.1 6 Nordeste 9 Nordeste 0 -- -- 100
2019-09-28 08:00:00 7 7 Este 13 Nordeste 0 -- -- 100
2019-09-28 07:00:00 6.9 11 Nordeste 13 Nordeste 0 -- -- 100
2019-09-28 06:00:00 7.1 6 Este 10 Nordeste 0 -- -- 100
2019-09-28 05:00:00 8.1 3 Este 8 Sur 0 -- -- 99
2019-09-28 04:00:00 9.6 5 Sudeste 8 Sur 0 -- -- 97
2019-09-28 03:00:00 9.7 6 Sudeste 8 Sudeste 0 -- -- 97
2019-09-28 02:00:00 10.2 4 Sur 6 Sudeste 0 -- -- 95
2019-09-28 01:00:00 10.9 3 Sur 12 Oeste 0 -- -- 87
2019-09-28 00:00:00 12.7 12 Oeste 24 Oeste 0 -- -- 84
2019-09-27 23:00:00 14.1 14 Oeste 22 Oeste 0 -- -- 78
2019-09-27 22:00:00 15.2 14 Oeste 21 Oeste 0 -- -- 73
2019-09-27 21:00:00 16.3 14 Oeste 22 Oeste 0 -- -- 69
2019-09-27 20:00:00 18.1 17 Oeste 32 Oeste 0 -- -- 64
2019-09-27 19:00:00 20.6 16 Oeste 38 Oeste 0 -- -- 56
2019-09-27 18:00:00 21.2 21 Oeste 36 Noroeste 0 -- -- 55
2019-09-27 17:00:00 21.1 25 Oeste 37 Oeste 0 -- -- 57
2019-09-27 16:00:00 22.5 26 Oeste 41 Oeste 0 -- -- 52
2019-09-27 15:00:00 22.1 23 Oeste 46 Oeste 0 -- -- 50
2019-09-27 14:00:00 21.6 16 Oeste 29 Oeste 0 -- -- 53
2019-09-27 13:00:00 20.2 15 Oeste 24 Oeste 0 -- -- 55
2019-09-27 12:00:00 17.8 10 Sudoeste 17 Oeste 0 -- -- 66
2019-09-27 11:00:00 15.1 9 Sudoeste 15 Sudoeste 0 -- -- 72
2019-09-27 10:00:00 12.5 7 Sudoeste 11 Sur 0 -- -- 87
2019-09-27 09:00:00 10 2 Oeste 15 Sudoeste 0 -- -- 95
2019-09-27 08:00:00 9.4 13 Sudoeste 14 Sudoeste 0 -- -- 94
2019-09-27 07:00:00 10.2 10 Oeste 14 Sudoeste 0 -- -- 89
2019-09-27 06:00:00 10.3 9 Sudoeste 13 Sudoeste 0 -- -- 88
2019-09-27 05:00:00 11.9 11 Oeste 14 Oeste 0 -- -- 74
2019-09-27 04:00:00 11.3 7 Oeste 14 Oeste 0 -- -- 80
2019-09-27 03:00:00 12.1 11 Sudoeste 13 Oeste 0 -- -- 77
2019-09-27 02:00:00 13 5 Oeste 14 Oeste 0 -- -- 78
2019-09-27 01:00:00 13.4 9 Oeste 15 Oeste 0 -- -- 77
2019-09-27 00:00:00 14.8 8 Oeste 13 Oeste 0 -- -- 74
2019-09-26 23:00:00 16.1 9 Sudoeste 15 Oeste 0 -- -- 68
2019-09-26 22:00:00 16.9 11 Sudoeste 18 Oeste 0 -- -- 60
2019-09-26 21:00:00 17.9 12 Oeste 21 Oeste 0 -- -- 53
2019-09-26 20:00:00 20.7 15 Oeste 26 Sudoeste 0 -- -- 42
2019-09-26 19:00:00 23.4 17 Sudoeste 27 Sudoeste 0 -- -- 35
2019-09-26 18:00:00 23.9 17 Sudoeste 28 Sudoeste 0 -- -- 31
2019-09-26 17:00:00 23.4 19 Oeste 32 Sudoeste 0 -- -- 27
2019-09-26 16:00:00 22.7 23 Sudoeste 32 Sudoeste 0 -- -- 27
2019-09-26 15:00:00 21.5 22 Sudoeste 36 Sudoeste 0 -- -- 37
2019-09-26 14:00:00 20.4 17 Sudoeste 26 Sudoeste 0 -- -- 47
2019-09-26 13:00:00 17.8 19 Sudoeste 26 Sudoeste 0 -- -- 55
2019-09-26 12:00:00 16.4 10 Sudoeste 17 Sudoeste 0 -- -- 66
2019-09-26 11:00:00 14.4 7 Sudoeste 13 Sudoeste 0 -- -- 78
2019-09-26 10:00:00 12.5 6 Sudoeste 9 Sudoeste 0 -- -- 87
2019-09-26 09:00:00 10.1 3 Oeste 9 Sur 0 -- -- 97
2019-09-26 08:00:00 7.8 4 Sur 9 Oeste 0 -- -- 100
2019-09-26 07:00:00 8.6 9 Sudoeste 13 Sudoeste 0 -- -- 98
2019-09-26 06:00:00 9.1 6 Sudoeste 8 Sudoeste 0 -- -- 99
2019-09-26 05:00:00 9.3 4 Sudoeste 8 Sudoeste 0 -- -- 98
2019-09-26 04:00:00 9.4 3 Sudoeste 9 Sudoeste 0 -- -- 97
2019-09-26 03:00:00 10.2 10 Sudoeste 15 Oeste 0 -- -- 89
2019-09-26 02:00:00 11.4 12 Sudoeste 16 Sudoeste 0 -- -- 88
2019-09-26 01:00:00 12.1 9 Oeste 11 Oeste 0 -- -- 85
2019-09-26 00:00:00 12.8 8 Oeste 22 Oeste 0 -- -- 81
2019-09-25 23:00:00 13.3 10 Oeste 15 Sudoeste 0 -- -- 79
2019-09-25 22:00:00 14.2 9 Sudoeste 20 Oeste 0 -- -- 74
2019-09-25 21:00:00 15.7 11 Oeste 22 Sudoeste 0 -- -- 68
2019-09-25 20:00:00 17.7 17 Sudoeste 25 Sudoeste 0 -- -- 60
2019-09-25 19:00:00 19.4 15 Sudoeste 24 Oeste 0 -- -- 54
2019-09-25 18:00:00 20.3 16 Oeste 29 Sudoeste 0 -- -- 51
2019-09-25 17:00:00 21.4 10 Sudoeste 27 Sudoeste 0 -- -- 50
2019-09-25 16:00:00 20.4 12 Sudoeste 28 Sudoeste 0 -- -- 49
2019-09-25 15:00:00 19.7 13 Sudoeste 24 Sudoeste 0 -- -- 50
2019-09-25 14:00:00 19 6 Oeste 20 Sudoeste 0 -- -- 51
2019-09-25 13:00:00 17.6 9 Sur 19 Sur 0 -- -- 55
2019-09-25 12:00:00 15.8 10 Sur 18 Sur 0 -- -- 63
2019-09-25 11:00:00 15.8 3 Noroeste 9 Oeste 0 -- -- 66
2019-09-25 10:00:00 11.4 6 Oeste 12 Sudoeste 0 -- -- 86
2019-09-25 09:00:00 8.9 5 Sudoeste 10 Sudoeste 0 -- -- 95
2019-09-25 08:00:00 6.4 5 Sur 9 Sudoeste 0 -- -- 96
2019-09-25 07:00:00 7.4 6 Sudoeste 10 Sudoeste 0 -- -- 91
2019-09-25 06:00:00 7.8 6 Sudoeste 14 Oeste 0 -- -- 94
2019-09-25 05:00:00 8.3 9 Oeste 18 Oeste 0 -- -- 92
2019-09-25 04:00:00 9.2 12 Oeste 17 Sudoeste 0 -- -- 87
2019-09-25 03:00:00 9.1 5 Sudoeste 19 Sudoeste 0 -- -- 87
2019-09-25 02:00:00 10 10 Sudoeste 22 Oeste 0 -- -- 86
2019-09-25 01:00:00 11.3 9 Sudoeste 28 Oeste 0 -- -- 84
2019-09-25 00:00:00 12.8 15 Oeste 33 Oeste 0 -- -- 79
2019-09-24 23:00:00 13.4 12 Oeste 32 Oeste 0 -- -- 78
2019-09-24 22:00:00 13.8 9 Sudoeste 26 Oeste 0 -- -- 76
2019-09-24 21:00:00 15.5 14 Oeste 37 Oeste 0 -- -- 70
2019-09-24 20:00:00 17.2 23 Oeste 45 Oeste 0 -- -- 61
2019-09-24 19:00:00 19.3 29 Oeste 45 Oeste 0 -- -- 54
2019-09-24 18:00:00 20.5 23 Oeste 45 Sudoeste 0 -- -- 53
2019-09-24 17:00:00 21 32 Oeste 51 Oeste 0 -- -- 56
2019-09-24 16:00:00 20.6 30 Oeste 43 Sudoeste 0 -- -- 60
2019-09-24 15:00:00 18.3 18 Sudoeste 39 Sudoeste 0 -- -- 78
2019-09-24 14:00:00 17 22 Sudoeste 34 Sudoeste 0 -- -- 83
2019-09-24 13:00:00 15.1 21 Sudoeste 32 Sudoeste 0 -- -- 95
2019-09-24 12:00:00 13.6 16 Sudoeste 28 Sudoeste 0 -- -- 98
2019-09-24 11:00:00 12.9 13 Sudoeste 21 Sudoeste 0 -- -- 99
2019-09-24 10:00:00 12 14 Sudoeste 23 Sudoeste 0 -- -- 99
2019-09-24 09:00:00 11.6 12 Sudoeste 23 Sudoeste 0 -- -- 95
2019-09-24 08:00:00 11.6 14 Sudoeste 23 Sudoeste 0 -- -- 94
2019-09-24 07:00:00 11.5 16 Sudoeste 28 Sudoeste 0 -- -- 95
2019-09-24 06:00:00 11.1 14 Sudoeste 20 Sudoeste 0 -- -- 97
2019-09-24 05:00:00 10.8 13 Sudoeste 21 Oeste 0 -- -- 98
2019-09-24 04:00:00 11.2 12 Sudoeste 18 Sudoeste 0 -- -- 97
2019-09-24 03:00:00 11.4 8 Oeste 18 Oeste 0 -- -- 94
2019-09-24 02:00:00 11.6 11 Sudoeste 15 Sudoeste 0 -- -- 92
2019-09-24 01:00:00 12.3 14 Sudoeste 16 Sudoeste 0 -- -- 87
2019-09-24 00:00:00 13.6 13 Sudoeste 19 Sudoeste 0 -- -- 81
2019-09-23 23:00:00 14.1 10 Sudoeste 14 Sudoeste 0 -- -- 76
2019-09-23 22:00:00 15.9 8 Sudoeste 10 Oeste 0 -- -- 67
2019-09-23 21:00:00 16.3 6 Sudoeste 17 Sudoeste 0 -- -- 65
2019-09-23 20:00:00 18.4 13 Sudoeste 31 Sudoeste 0 -- -- 57
2019-09-23 19:00:00 20 19 Sudoeste 28 Sudoeste 0 -- -- 52
2019-09-23 18:00:00 20.6 15 Sudoeste 30 Oeste 0 -- -- 51
2019-09-23 17:00:00 20.1 14 Sudoeste 30 Oeste 0 -- -- 54
2019-09-23 16:00:00 18.7 16 Sudoeste 32 Oeste 0 -- -- 56
2019-09-23 15:00:00 19 14 Sudoeste 32 Oeste 0 -- -- 55
2019-09-23 14:00:00 17.1 14 Sudoeste 27 Sudoeste 0 -- -- 62
2019-09-23 13:00:00 15.7 17 Sudoeste 27 Sudoeste 0 -- -- 69
2019-09-23 12:00:00 14.1 14 Sudoeste 24 Oeste 0 -- -- 75
2019-09-23 11:00:00 12.1 12 Sudoeste 18 Sudoeste 0 -- -- 87
2019-09-23 10:00:00 10.5 8 Sudoeste 14 Sur 0 -- -- 98
2019-09-23 09:00:00 9 7 Sur 12 Sur 0 -- -- 100
2019-09-23 08:00:00 8.1 6 Sudoeste 9 Sudoeste 0 -- -- 100
2019-09-23 07:00:00 8.1 7 Sudoeste 14 Sudoeste 0 -- -- 98
2019-09-23 06:00:00 8.4 9 Oeste 13 Sudoeste 0 -- -- 99
2019-09-23 05:00:00 8.9 12 Sudoeste 14 Oeste 0 -- -- 94
2019-09-23 04:00:00 8.1 7 Oeste 10 Oeste 0 -- -- 96
2019-09-23 03:00:00 9.2 8 Oeste 18 Oeste 0 -- -- 93
2019-09-23 02:00:00 9.7 14 Sudoeste 19 Oeste 0 -- -- 92
2019-09-23 01:00:00 10 9 Oeste 12 Oeste 0 -- -- 88
2019-09-23 00:00:00 10.5 8 Sudoeste 16 Oeste 0 -- -- 84
2019-09-22 23:00:00 11.4 10 Oeste 17 Oeste 0 -- -- 82
2019-09-22 22:00:00 12.7 10 Sudoeste 16 Oeste 0 -- -- 73
2019-09-22 21:00:00 13.6 12 Oeste 19 Oeste 0 -- -- 69
2019-09-22 20:00:00 15.9 17 Oeste 28 Oeste 0 -- -- 59
2019-09-22 19:00:00 18.1 22 Sudoeste 33 Sudoeste 0 -- -- 51
2019-09-22 18:00:00 18.9 19 Sudoeste 38 Oeste 0 -- -- 48
2019-09-22 17:00:00 17.4 13 Oeste 34 Oeste 0 -- -- 50
2019-09-22 16:00:00 18.8 19 Oeste 33 Noroeste 0 -- -- 50
2019-09-22 15:00:00 17.8 16 Oeste 31 Oeste 0 -- -- 52
2019-09-22 14:00:00 15.2 15 Oeste 30 Sudoeste 0 -- -- 67
2019-09-22 13:00:00 16.1 14 Sudoeste 28 Sudoeste 0 -- -- 74
2019-09-22 12:00:00 13.5 15 Sudoeste 21 Sudoeste 0 -- -- 88
2019-09-22 11:00:00 11.7 10 Sudoeste 23 Sudoeste 0 -- -- 98
2019-09-22 10:00:00 10.9 12 Sudoeste 24 Sudoeste 0.4 -- -- 100
2019-09-22 09:00:00 10.3 10 Sudoeste 20 Sudoeste 0 -- -- 100
2019-09-22 08:00:00 10.1 13 Sudoeste 21 Sudoeste 0 -- -- 100
2019-09-22 07:00:00 10.5 12 Sudoeste 22 Sudoeste 0 -- -- 100
2019-09-22 06:00:00 10.5 14 Sudoeste 22 Sudoeste 0 -- -- 100
2019-09-22 05:00:00 10.5 13 Sudoeste 26 Sudoeste 0 -- -- 100
2019-09-22 04:00:00 10.5 18 Sudoeste 28 Sudoeste 0 -- -- 100
2019-09-22 03:00:00 10.6 16 Sudoeste 26 Sudoeste 0 -- -- 100
2019-09-22 02:00:00 10.4 19 Sudoeste 31 Sudoeste 0 -- -- 100
2019-09-22 01:00:00 10.3 20 Sudoeste 28 Sudoeste 0 -- -- 100
2019-09-22 00:00:00 11 19 Sudoeste 42 Oeste 0.4 -- -- 98
2019-09-21 23:00:00 13.2 23 Oeste 51 Sur 0.6 -- -- 98
2019-09-21 22:00:00 14.7 30 Sur 49 Sur 1.6 -- -- 98
2019-09-21 21:00:00 14.9 25 Sur 44 Sur 1 -- -- 97
2019-09-21 20:00:00 15 27 Sur 38 Sur 0.4 -- -- 97
2019-09-21 19:00:00 15.3 17 Sudoeste 34 Sur 2.2 -- -- 97
2019-09-21 18:00:00 15.5 15 Sur 44 Sur 0.2 -- -- 96
2019-09-21 17:00:00 16.3 24 Sur 33 Sudoeste 0 -- -- 90
2019-09-21 16:00:00 16.1 23 Sur 35 Sudoeste 0 -- -- 90
2019-09-21 15:00:00 16.1 21 Sur 33 Sur 0 -- -- 92
2019-09-21 14:00:00 15.1 20 Sur 33 Sur 0.2 -- -- 96
2019-09-21 13:00:00 14.5 17 Sur 27 Sur 0.2 -- -- 97
2019-09-21 12:00:00 14.2 18 Sur 31 Sudoeste 1.2 -- -- 98
2019-09-21 11:00:00 14.3 13 Sur 23 Sur 0.4 -- -- 95
2019-09-21 10:00:00 14.1 14 Sur 28 Sur 0.4 -- -- 94
2019-09-21 09:00:00 14.8 14 Sur 27 Sur 0 -- -- 85
2019-09-21 08:00:00 14.3 11 Sur 17 Sur 0 -- -- 86
2019-09-21 07:00:00 14.6 12 Sur 24 Sur 0 -- -- 84
2019-09-21 06:00:00 14.8 18 Sur 32 Sudoeste 0 -- -- 81
2019-09-21 05:00:00 14.8 19 Sur 29 Sudoeste 0 -- -- 80
2019-09-21 04:00:00 14.7 19 Sudoeste 30 Sur 0 -- -- 77
2019-09-21 03:00:00 15.2 16 Sur 28 Sur 0 -- -- 72
2019-09-21 02:00:00 16.6 16 Sur 30 Sudoeste 0 -- -- 65
2019-09-21 01:00:00 17.1 15 Sudoeste 24 Sudoeste 0 -- -- 70
2019-09-21 00:00:00 17.4 12 Sudoeste 20 Sudoeste 0 -- -- 68
2019-09-20 23:00:00 18.2 8 Sudoeste 24 Sudoeste 0 -- -- 64
2019-09-20 22:00:00 19.5 13 Sudoeste 21 Sudoeste 0 -- -- 57
2019-09-20 21:00:00 19.5 8 Sudoeste 18 Sur 0 -- -- 55
2019-09-20 20:00:00 21.2 12 Sur 40 Sur 0 -- -- 50
2019-09-20 19:00:00 23.6 21 Sudoeste 35 Sudeste 0 -- -- 44
2019-09-20 18:00:00 24.6 16 Sur 38 Sur 0 -- -- 40
2019-09-20 17:00:00 25 18 Sur 33 Sur 0 -- -- 34
2019-09-20 16:00:00 24.7 20 Sudeste 32 Sur 0 -- -- 35
2019-09-20 15:00:00 25.1 14 Sur 39 Sudoeste 0 -- -- 41
2019-09-20 14:00:00 23.9 15 Sur 27 Sur 0 -- -- 47
2019-09-20 13:00:00 22.6 13 Sudoeste 25 Sudoeste 0 -- -- 51
2019-09-20 12:00:00 21.7 12 Sur 20 Sur 0 -- -- 58
2019-09-20 11:00:00 20.9 8 Sudeste 15 Este 0 -- -- 61
2019-09-20 10:00:00 18.1 8 Este 18 Nordeste 0 -- -- 73
2019-09-20 09:00:00 15.2 16 Nordeste 21 Nordeste 0 -- -- 83
2019-09-20 08:00:00 14.5 16 Nordeste 20 Nordeste 0 -- -- 82
2019-09-20 07:00:00 14.1 13 Nordeste 17 Nordeste 0 -- -- 82
2019-09-20 06:00:00 14.2 13 Nordeste 18 Nordeste 0 -- -- 77
2019-09-20 05:00:00 15.5 16 Nordeste 19 Nordeste 0 -- -- 69
2019-09-20 04:00:00 16.1 14 Nordeste 17 Nordeste 0 -- -- 67
2019-09-20 03:00:00 16.4 14 Nordeste 17 Nordeste 0 -- -- 64
2019-09-20 02:00:00 17.8 12 Nordeste 15 Este 0 -- -- 58
2019-09-20 01:00:00 16.7 10 Nordeste 14 Nordeste 0 -- -- 63
2019-09-20 00:00:00 17.2 12 Nordeste 15 Este 0 -- -- 61
2019-09-19 23:00:00 18.4 12 Este 16 Este 0 -- -- 57
2019-09-19 22:00:00 18.5 12 Este 15 Nordeste 0 -- -- 56
2019-09-19 21:00:00 20.5 12 Este 14 Este 0 -- -- 50
2019-09-19 20:00:00 22.9 8 Este 21 Este 0 -- -- 43
2019-09-19 19:00:00 26.3 10 Este 19 Sudeste 0 -- -- 36
2019-09-19 18:00:00 26.9 11 Sudeste 28 Nordeste 0 -- -- 34
2019-09-19 17:00:00 26.9 8 Este 21 Sudeste 0 -- -- 35
2019-09-19 16:00:00 25.9 15 Sudeste 31 Sudeste 0 -- -- 38
2019-09-19 15:00:00 25.2 9 Sudeste 24 Sudeste 0 -- -- 41
2019-09-19 14:00:00 24.7 13 Este 25 Este 0 -- -- 45
2019-09-19 13:00:00 23.5 10 Este 25 Este 0 -- -- 46
2019-09-19 12:00:00 22 12 Este 24 Este 0 -- -- 54
2019-09-19 11:00:00 19.7 19 Nordeste 26 Nordeste 0 -- -- 67
2019-09-19 10:00:00 16.1 12 Nordeste 17 Nordeste 0 -- -- 88
2019-09-19 09:00:00 14.3 10 Nordeste 17 Nordeste 0 -- -- 95
2019-09-19 08:00:00 13.4 13 Nordeste 16 Nordeste 0 -- -- 97
2019-09-19 07:00:00 13.4 14 Nordeste 15 Norte 0 -- -- 96
2019-09-19 06:00:00 13.2 11 Nordeste 13 Nordeste 0 -- -- 94
2019-09-19 05:00:00 13.5 12 Nordeste 14 Nordeste 0 -- -- 91
2019-09-19 04:00:00 13.5 12 Nordeste 14 Nordeste 0 -- -- 87
2019-09-19 03:00:00 14.3 12 Nordeste 17 Nordeste 0 -- -- 82
2019-09-19 02:00:00 15.3 12 Nordeste 14 Nordeste 0 -- -- 77
2019-09-19 01:00:00 17.1 14 Nordeste 15 Este 0 -- -- 70
2019-09-19 00:00:00 16.8 13 Nordeste 14 Nordeste 0 -- -- 70
2019-09-18 23:00:00 17.3 13 Nordeste 14 Nordeste 0 -- -- 66
2019-09-18 22:00:00 18.1 11 Este 14 Este 0 -- -- 62
2019-09-18 21:00:00 19.7 10 Este 13 Este 0 -- -- 56
2019-09-18 20:00:00 22.4 9 Este 26 Este 0 -- -- 48
2019-09-18 19:00:00 26.3 12 Este 20 Sudeste 0 -- -- 38
2019-09-18 18:00:00 26 6 Este 21 Norte 0 -- -- 37
2019-09-18 17:00:00 26.7 13 Sudeste 23 Sudeste 0 -- -- 37
2019-09-18 16:00:00 25.8 12 Sudeste 26 Sudeste 0 -- -- 39
2019-09-18 15:00:00 25.7 5 Norte 21 Este 0 -- -- 39
2019-09-18 14:00:00 24 9 Nordeste 22 Este 0 -- -- 44
2019-09-18 13:00:00 23 9 Este 19 Nordeste 0 -- -- 52
2019-09-18 12:00:00 20.9 8 Este 15 Este 0 -- -- 58
2019-09-18 11:00:00 18.9 9 Nordeste 17 Este 0 -- -- 67
2019-09-18 10:00:00 17.1 9 Nordeste 12 Nordeste 0 -- -- 79
2019-09-18 09:00:00 13.7 9 Norte 10 Norte 0 -- -- 97
2019-09-18 08:00:00 11.4 4 Norte 16 Nordeste 0 -- -- 99
2019-09-18 07:00:00 12.6 15 Nordeste 23 Nordeste 0 -- -- 99
2019-09-18 06:00:00 12 14 Nordeste 18 Nordeste 0 -- -- 99
2019-09-18 05:00:00 12.6 14 Nordeste 19 Nordeste 0 -- -- 96
2019-09-18 04:00:00 12.6 10 Este 23 Este 0 -- -- 90
2019-09-18 03:00:00 13 12 Norte 16 Norte 0 -- -- 87
2019-09-18 02:00:00 13.9 13 Norte 16 Norte 0 -- -- 86
2019-09-18 01:00:00 14.2 11 Nordeste 16 Este 0 -- -- 83
2019-09-18 00:00:00 15.8 12 Sudeste 21 Este 0 -- -- 76
2019-09-17 23:00:00 14.9 6 Sur 11 Noroeste 0 -- -- 84
2019-09-17 22:00:00 16.4 13 Noroeste 31 Noroeste 0 -- -- 80
2019-09-17 21:00:00 17.2 3 Norte 9 Noroeste 0 -- -- 69